createdAt,value
2023-02-20T00:02:03.945Z,5.9
2023-02-20T00:04:06.887Z,5.9
2023-02-20T00:06:10.244Z,5.8
2023-02-20T00:08:13.081Z,5.9
2023-02-20T00:10:16.056Z,5.9
2023-02-20T00:12:19.134Z,5.9
2023-02-20T00:16:28.456Z,5.9
2023-02-20T00:20:34.620Z,5.8
2023-02-20T00:26:43.772Z,5.9
2023-02-20T00:28:48.439Z,5.9
2023-02-20T00:30:54.683Z,5.9
2023-02-20T00:32:57.726Z,5.9
2023-02-20T00:37:03.890Z,6
2023-02-20T00:39:06.945Z,6
2023-02-20T00:43:13.065Z,6.1
2023-02-20T00:45:19.353Z,6.2
2023-02-20T00:47:22.400Z,6.2
2023-02-20T00:50:28.606Z,6.2
2023-02-20T00:52:31.691Z,6.2
2023-02-20T00:54:34.761Z,6.2
2023-02-20T00:56:37.834Z,6.2
2023-02-20T00:58:44.117Z,6.3
2023-02-20T01:00:47.162Z,6.3
2023-02-20T01:02:50.295Z,6.2
2023-02-20T01:04:53.322Z,6.2
2023-02-20T01:06:56.389Z,6.3
2023-02-20T01:13:08.775Z,6.2
2023-02-20T01:19:17.994Z,6.1
2023-02-20T01:21:21.053Z,6.3
2023-02-20T01:23:24.121Z,6.2
2023-02-20T01:25:27.208Z,6.1
2023-02-20T01:27:33.461Z,6.1
2023-02-20T01:29:36.646Z,6.1
2023-02-20T01:31:39.714Z,6.2
2023-02-20T01:33:42.662Z,6.2
2023-02-20T01:35:45.719Z,6.1
2023-02-20T01:37:48.799Z,6
2023-02-20T01:39:51.979Z,6
2023-02-20T01:41:58.147Z,6
2023-02-20T01:44:01.210Z,6
2023-02-20T01:46:04.284Z,6.1
2023-02-20T01:48:28.549Z,6
2023-02-20T01:50:31.606Z,6.1
2023-02-20T01:52:34.677Z,6.1
2023-02-20T01:54:40.964Z,6
2023-02-20T01:56:44.037Z,5.9
2023-02-20T01:58:47.135Z,6
2023-02-20T02:00:50.217Z,6
2023-02-20T02:02:53.253Z,6
2023-02-20T02:04:56.336Z,5.9
2023-02-20T02:09:05.679Z,5.9
2023-02-20T02:11:08.740Z,5.9
2023-02-20T02:15:14.875Z,5.9
2023-02-20T02:17:17.934Z,5.9
2023-02-20T02:19:21.056Z,5.9
2023-02-20T02:21:24.082Z,5.8
2023-02-20T02:23:30.354Z,5.8
2023-02-20T02:25:33.428Z,5.9
2023-02-20T02:27:36.503Z,6
2023-02-20T02:29:39.554Z,5.8
2023-02-20T02:33:45.676Z,5.9
2023-02-20T02:35:48.741Z,5.9
2023-02-20T02:37:55.036Z,5.9
2023-02-20T02:39:58.067Z,5.9
2023-02-20T02:42:01.128Z,5.9
2023-02-20T02:43:04.285Z,5.9
2023-02-20T02:45:07.325Z,5.9
2023-02-20T02:47:10.381Z,5.9
2023-02-20T02:49:13.442Z,5.9
2023-02-20T02:51:19.724Z,6
2023-02-20T02:53:22.819Z,6
2023-02-20T02:55:25.896Z,6
2023-02-20T02:59:32.013Z,6.1
2023-02-20T03:01:35.081Z,6.1
2023-02-20T03:03:38.141Z,6.1
2023-02-20T03:05:44.392Z,6
2023-02-20T03:07:47.483Z,6.1
2023-02-20T03:13:56.708Z,6.2
2023-02-20T03:20:09.117Z,6.4
2023-02-20T03:22:12.188Z,6.4
2023-02-20T03:26:18.977Z,6.4
2023-02-20T03:28:21.388Z,6.5
2023-02-20T03:32:27.533Z,6.5
2023-02-20T03:36:36.881Z,6.5
2023-02-20T03:38:39.971Z,6.5
2023-02-20T03:41:46.170Z,6.5
2023-02-20T03:43:49.266Z,6.6
2023-02-20T03:47:58.671Z,6.5
2023-02-20T03:50:01.732Z,6.5
2023-02-20T03:52:04.774Z,6.6
2023-02-20T03:54:07.857Z,6.6
2023-02-20T03:56:11.237Z,6.7
2023-02-20T03:58:14.011Z,6.6
2023-02-20T04:00:17.074Z,6.7
2023-02-20T04:02:23.405Z,6.7
2023-02-20T04:04:26.438Z,6.7
2023-02-20T04:08:32.571Z,6.8
2023-02-20T04:10:35.656Z,6.7
2023-02-20T04:12:38.709Z,6.7
2023-02-20T04:14:41.803Z,6.8
2023-02-20T04:16:48.144Z,6.9
2023-02-20T04:18:51.167Z,6.9
2023-02-20T04:20:54.272Z,6.8
2023-02-20T04:22:57.348Z,6.9
2023-02-20T04:25:00.422Z,6.8
2023-02-20T04:29:06.587Z,6.9
2023-02-20T04:33:15.963Z,7
2023-02-20T04:36:22.201Z,7
2023-02-20T04:38:25.284Z,7
2023-02-20T04:40:28.368Z,7.1
2023-02-20T04:44:37.744Z,7.1
2023-02-20T04:46:40.854Z,7.1
2023-02-20T04:48:43.933Z,7.2
2023-02-20T04:50:47.034Z,7.1
2023-02-20T04:52:50.112Z,7.1
2023-02-20T04:54:53.207Z,7.2
2023-02-20T04:56:56.282Z,7.3
2023-02-20T04:59:02.592Z,7.2
2023-02-20T05:01:05.734Z,7.2
2023-02-20T05:03:08.776Z,7.3
2023-02-20T05:05:11.869Z,7.4
2023-02-20T05:07:14.994Z,7.4
2023-02-20T05:11:21.142Z,7.3
2023-02-20T05:13:27.438Z,7.4
2023-02-20T05:15:30.573Z,7.3
2023-02-20T05:19:36.697Z,7.5
2023-02-20T05:25:45.994Z,7.4
2023-02-20T05:29:55.388Z,7.5
2023-02-20T05:31:58.512Z,7.5
2023-02-20T05:34:22.891Z,7.5
2023-02-20T05:36:25.812Z,7.5
2023-02-20T05:38:28.936Z,7.5
2023-02-20T05:40:35.220Z,7.5
2023-02-20T05:42:38.324Z,7.6
2023-02-20T05:48:47.612Z,7.5
2023-02-20T05:50:50.713Z,7.6
2023-02-20T05:52:53.807Z,7.5
2023-02-20T05:55:00.128Z,7.6
2023-02-20T05:57:03.190Z,7.6
2023-02-20T05:59:06.297Z,7.5
2023-02-20T06:01:09.379Z,7.7
2023-02-20T06:03:12.479Z,7.6
2023-02-20T06:05:15.600Z,7.6
2023-02-20T06:07:18.652Z,7.7
2023-02-20T06:09:24.965Z,7.6
2023-02-20T06:11:28.080Z,7.7
2023-02-20T06:13:31.170Z,7.6
2023-02-20T06:15:34.258Z,7.8
2023-02-20T06:17:37.361Z,7.8
2023-02-20T06:19:40.457Z,7.7
2023-02-20T06:21:43.544Z,7.7
2023-02-20T06:23:51.382Z,7.8
2023-02-20T06:27:57.582Z,7.8
2023-02-20T06:31:03.867Z,7.8
2023-02-20T06:33:06.930Z,7.8
2023-02-20T06:35:10.019Z,7.8
2023-02-20T06:37:16.293Z,7.8
2023-02-20T06:39:19.432Z,7.9
2023-02-20T06:41:22.505Z,7.8
2023-02-20T06:43:25.623Z,7.9
2023-02-20T06:45:28.701Z,7.8
2023-02-20T06:49:34.901Z,7.9
2023-02-20T06:51:41.209Z,8
2023-02-20T06:55:47.396Z,7.9
2023-02-20T07:06:06.124Z,8
2023-02-20T07:10:12.309Z,8
2023-02-20T07:12:15.398Z,8
2023-02-20T07:14:18.525Z,8
2023-02-20T07:16:21.677Z,8.1
2023-02-20T07:18:24.726Z,8.2
2023-02-20T07:20:30.991Z,8.2
2023-02-20T07:22:34.094Z,8.1
2023-02-20T07:24:37.189Z,8.1
2023-02-20T07:27:43.452Z,8.1
2023-02-20T07:31:49.704Z,8.1
2023-02-20T07:35:59.056Z,8.2
2023-02-20T07:38:02.132Z,8.2
2023-02-20T07:42:08.360Z,8.2
2023-02-20T07:44:11.452Z,8.2
2023-02-20T07:46:14.928Z,8.2
2023-02-20T07:48:20.845Z,8.2
2023-02-20T07:50:23.933Z,8.2
2023-02-20T07:52:27.073Z,8.3
2023-02-20T07:56:33.248Z,8.2
2023-02-20T07:58:36.344Z,8.3
2023-02-20T08:00:39.445Z,8.3
2023-02-20T08:02:45.737Z,8.2
2023-02-20T08:04:48.892Z,8.2
2023-02-20T08:06:51.945Z,8.3
2023-02-20T08:08:55.064Z,8.3
2023-02-20T08:11:08.401Z,8.2
2023-02-20T08:13:01.254Z,8.3
2023-02-20T08:15:04.339Z,8.3
2023-02-20T08:17:10.649Z,8.3
2023-02-20T08:19:13.823Z,8.3
2023-02-20T08:21:16.870Z,8.3
2023-02-20T08:22:21.503Z,8.4
2023-02-20T08:24:23.117Z,8.4
2023-02-20T08:26:26.208Z,8.4
2023-02-20T08:28:29.319Z,8.4
2023-02-20T08:30:35.685Z,8.5
2023-02-20T08:32:39.022Z,8.5
2023-02-20T08:34:41.833Z,8.5
2023-02-20T08:36:44.952Z,8.6
2023-02-20T08:38:48.036Z,8.8
2023-02-20T08:40:51.164Z,8.8
2023-02-20T08:42:54.246Z,8.7
2023-02-20T08:45:00.549Z,8.8
2023-02-20T08:47:03.676Z,8.8
2023-02-20T08:49:06.745Z,8.9
2023-02-20T08:51:09.853Z,9
2023-02-20T08:53:12.957Z,8.9
2023-02-20T08:55:16.057Z,9
2023-02-20T08:57:19.161Z,9
2023-02-20T08:59:25.474Z,9
2023-02-20T09:01:28.649Z,8.9
2023-02-20T09:03:31.741Z,8.9
2023-02-20T09:05:34.815Z,8.9
2023-02-20T09:07:37.928Z,8.8
2023-02-20T09:09:41.067Z,8.8
2023-02-20T09:11:44.170Z,8.9
2023-02-20T09:13:50.464Z,8.8
2023-02-20T09:15:53.602Z,8.9
2023-02-20T09:17:56.704Z,8.8
2023-02-20T09:20:20.815Z,8.8
2023-02-20T09:22:23.931Z,8.8
2023-02-20T09:24:27.040Z,8.9
2023-02-20T09:26:33.334Z,8.9
2023-02-20T09:28:36.440Z,8.9
2023-02-20T09:30:39.799Z,8.9
2023-02-20T09:32:42.759Z,8.9
2023-02-20T09:34:45.791Z,8.9
2023-02-20T09:36:48.967Z,9
2023-02-20T09:38:52.028Z,9.1
2023-02-20T09:40:58.342Z,9
2023-02-20T09:43:01.457Z,8.9
2023-02-20T09:45:04.561Z,8.9
2023-02-20T09:47:07.678Z,9
2023-02-20T09:49:10.774Z,8.9
2023-02-20T09:51:13.902Z,9
2023-02-20T09:53:17.012Z,8.9
2023-02-20T09:55:23.335Z,8.9
2023-02-20T09:57:26.451Z,8.9
2023-02-20T09:59:29.546Z,8.9
2023-02-20T10:01:32.683Z,8.9
2023-02-20T10:03:35.772Z,8.9
2023-02-20T10:05:38.901Z,8.9
2023-02-20T10:07:42.025Z,8.8
2023-02-20T10:09:48.310Z,8.9
2023-02-20T10:11:51.426Z,8.9
2023-02-20T10:13:54.536Z,8.9
2023-02-20T10:14:57.711Z,8.9
2023-02-20T10:17:00.829Z,8.9
2023-02-20T10:19:03.935Z,8.9
2023-02-20T10:21:07.065Z,9
2023-02-20T10:23:13.353Z,9
2023-02-20T10:25:16.501Z,9
2023-02-20T10:27:19.753Z,9.1
2023-02-20T10:29:22.704Z,9
2023-02-20T10:31:26.064Z,9.1
2023-02-20T10:33:28.934Z,9.1
2023-02-20T10:35:32.048Z,9.1
2023-02-20T10:39:41.482Z,9.1
2023-02-20T10:43:47.670Z,9.1
2023-02-20T10:47:53.918Z,9.2
2023-02-20T10:49:57.031Z,9.3
2023-02-20T10:56:09.573Z,9.2
2023-02-20T11:00:15.822Z,9.1
2023-02-20T11:02:19.049Z,9.1
2023-02-20T11:04:22.070Z,9.2
2023-02-20T11:06:28.328Z,9
2023-02-20T11:10:34.560Z,9.1
2023-02-20T11:11:37.675Z,9.1
2023-02-20T11:13:40.819Z,9.2
2023-02-20T11:15:43.988Z,9.2
2023-02-20T11:17:47.033Z,9.1
2023-02-20T11:19:53.353Z,9.1
2023-02-20T11:21:56.450Z,9.1
2023-02-20T11:23:59.549Z,9.2
2023-02-20T11:26:02.681Z,9.1
2023-02-20T11:30:08.945Z,9.1
2023-02-20T11:32:12.020Z,9.1
2023-02-20T11:34:18.312Z,9.1
2023-02-20T11:36:21.590Z,9.1
2023-02-20T11:38:24.560Z,9
2023-02-20T11:40:27.670Z,9.1
2023-02-20T11:42:30.792Z,9.2
2023-02-20T11:44:33.850Z,9.1
2023-02-20T11:46:36.992Z,9.1
2023-02-20T11:48:43.264Z,9.1
2023-02-20T11:50:46.380Z,9.1
2023-02-20T12:07:14.438Z,9.1
2023-02-20T12:08:17.716Z,9.1
2023-02-20T12:10:20.740Z,9.1
2023-02-20T12:12:23.856Z,9.1
2023-02-20T12:14:26.973Z,9.2
2023-02-20T12:16:34.877Z,9.3
2023-02-20T12:18:37.908Z,9.1
2023-02-20T12:20:41.048Z,9.2
2023-02-20T12:22:44.161Z,9.2
2023-02-20T12:24:47.248Z,9.3
2023-02-20T12:26:52.001Z,9.2
2023-02-20T12:28:53.475Z,9.2
2023-02-20T12:35:06.018Z,9.2
2023-02-20T12:41:15.413Z,9.3
2023-02-20T12:47:28.313Z,9.4
2023-02-20T12:49:31.416Z,9.3
2023-02-20T12:51:34.535Z,9.3
2023-02-20T12:53:37.627Z,9.3
2023-02-20T12:55:40.750Z,9.3
2023-02-20T13:01:53.291Z,9.4
2023-02-20T13:03:56.424Z,9.5
2023-02-20T13:06:24.237Z,9.4
2023-02-20T13:08:27.364Z,9.4
2023-02-20T13:18:46.121Z,9.6
2023-02-20T13:20:49.233Z,9.6
2023-02-20T13:22:52.348Z,9.6
2023-02-20T13:24:55.456Z,9.7
2023-02-20T13:27:01.759Z,9.8
2023-02-20T13:29:04.871Z,9.8
2023-02-20T13:31:07.983Z,9.9
2023-02-20T13:33:11.112Z,9.8
2023-02-20T13:35:14.277Z,9.7
2023-02-20T13:47:36.136Z,9.9
2023-02-20T13:49:39.239Z,9.8
2023-02-20T13:53:45.452Z,9.7
2023-02-20T13:57:54.923Z,9.8
2023-02-20T13:59:58.022Z,9.9
2023-02-20T14:01:01.326Z,9.8
2023-02-20T14:03:04.301Z,9.8
2023-02-20T14:13:34.152Z,10
2023-02-20T14:15:26.213Z,9.9
2023-02-20T14:17:29.453Z,9.9
2023-02-20T14:19:32.472Z,9.9
2023-02-20T14:21:35.557Z,9.9
2023-02-20T14:23:41.894Z,9.7
2023-02-20T14:25:59.813Z,9.8
2023-02-20T14:27:50.055Z,9.8
2023-02-20T14:29:51.237Z,9.7
2023-02-20T14:31:54.470Z,9.7
2023-02-20T14:33:57.479Z,9.7
2023-02-20T14:36:00.585Z,9.7
2023-02-20T14:38:06.971Z,9.7
2023-02-20T14:40:10.051Z,9.6
2023-02-20T14:42:13.122Z,9.6
2023-02-20T14:44:16.249Z,9.6
2023-02-20T14:46:19.449Z,9.6
2023-02-20T14:48:22.496Z,9.6
2023-02-20T14:50:25.618Z,9.6
2023-02-20T14:52:31.928Z,9.6
2023-02-20T14:54:35.081Z,9.6
2023-02-20T14:56:38.177Z,9.7
2023-02-20T14:59:44.443Z,9.6
2023-02-20T15:01:47.636Z,9.6
2023-02-20T15:05:57.004Z,9.5
2023-02-20T15:08:00.217Z,9.6
2023-02-20T15:10:03.264Z,9.5
2023-02-20T15:12:06.373Z,9.7
2023-02-20T15:14:09.485Z,9.6
2023-02-20T15:18:15.716Z,9.5
2023-02-20T15:22:25.163Z,9.5
2023-02-20T15:24:28.284Z,9.5
2023-02-20T15:26:31.389Z,9.6
2023-02-20T15:28:34.531Z,9.6
2023-02-20T15:30:37.733Z,9.5
2023-02-20T15:32:40.806Z,9.5
2023-02-20T15:34:47.102Z,9.4
2023-02-20T15:36:50.215Z,9.4
2023-02-20T15:38:55.147Z,9.4
2023-02-20T15:40:56.498Z,9.4
2023-02-20T15:42:59.791Z,9.3
2023-02-20T15:45:02.717Z,9.3
2023-02-20T15:47:05.808Z,9.3
2023-02-20T15:49:19.383Z,9.3
2023-02-20T15:51:15.593Z,9.4
2023-02-20T15:53:18.358Z,9.3
2023-02-20T15:54:21.519Z,9.2
2023-02-20T15:56:24.635Z,9.3
2023-02-20T15:58:31.453Z,9.3
2023-02-20T16:00:30.870Z,9.2
2023-02-20T16:06:43.437Z,9.3
2023-02-20T16:08:46.568Z,9.2
2023-02-20T16:10:49.630Z,9.1
2023-02-20T16:12:52.761Z,9.1
2023-02-20T16:14:55.879Z,9.2
2023-02-20T16:17:02.221Z,9.2
2023-02-20T16:19:05.309Z,9.2
2023-02-20T16:21:08.490Z,9.2
2023-02-20T16:23:11.555Z,9.1
2023-02-20T16:25:14.677Z,9.1
2023-02-20T16:27:23.926Z,9.1
2023-02-20T16:29:20.901Z,9.1
2023-02-20T16:31:27.304Z,9
2023-02-20T16:33:30.326Z,9.1
2023-02-20T16:35:33.435Z,9
2023-02-20T16:37:36.568Z,9.2
2023-02-20T16:39:39.681Z,9
2023-02-20T16:41:42.934Z,9.1
2023-02-20T16:43:45.900Z,9.1
2023-02-20T16:45:52.256Z,9.1
2023-02-20T16:49:58.425Z,9.1
2023-02-20T16:54:25.255Z,9
2023-02-20T16:56:28.378Z,9
2023-02-20T16:58:34.681Z,9.1
2023-02-20T17:02:40.910Z,9.1
2023-02-20T17:04:44.063Z,9
2023-02-20T17:08:50.204Z,9
2023-02-20T17:10:53.320Z,9
2023-02-20T17:15:02.755Z,8.9
2023-02-20T17:17:05.877Z,9.1
2023-02-20T17:19:08.971Z,9
2023-02-20T17:21:12.614Z,8.9
2023-02-20T17:23:15.205Z,9
2023-02-20T17:25:18.313Z,9
2023-02-20T17:27:24.643Z,8.9
2023-02-20T17:29:27.738Z,8.9
2023-02-20T17:31:30.979Z,9
2023-02-20T17:33:33.968Z,9
2023-02-20T17:35:37.087Z,8.9
2023-02-20T17:37:40.219Z,9
2023-02-20T17:39:43.335Z,9
2023-02-20T17:41:49.653Z,8.9
2023-02-20T17:43:52.762Z,8.9
2023-02-20T17:45:55.880Z,8.9
2023-02-20T17:46:59.109Z,8.9
2023-02-20T17:49:02.190Z,8.9
2023-02-20T17:51:05.299Z,8.9
2023-02-20T17:57:17.815Z,8.9
2023-02-20T18:01:24.120Z,8.9
2023-02-20T18:03:27.218Z,8.8
2023-02-20T18:05:30.284Z,8.9
2023-02-20T18:07:33.390Z,8.9
2023-02-20T18:09:39.693Z,8.9
2023-02-20T18:11:44.410Z,8.9
2023-02-20T18:13:47.434Z,8.9
2023-02-20T18:15:50.557Z,8.8
2023-02-20T18:17:53.674Z,8.9
2023-02-20T18:19:56.768Z,8.9
2023-02-20T18:21:59.917Z,8.9
2023-02-20T18:24:06.223Z,8.8
2023-02-20T18:26:09.301Z,8.8
2023-02-20T18:28:12.420Z,8.8
2023-02-20T18:30:15.666Z,8.9
2023-02-20T18:36:25.208Z,8.9
2023-02-20T18:40:34.317Z,8.8
2023-02-20T18:42:37.420Z,8.8
2023-02-20T18:43:40.592Z,8.8
2023-02-20T18:45:43.732Z,8.7
2023-02-20T18:47:46.814Z,8.7
2023-02-20T18:49:49.950Z,8.8
2023-02-20T18:51:56.246Z,8.7
2023-02-20T18:53:59.329Z,8.7
2023-02-20T18:56:02.454Z,8.8
2023-02-20T18:58:05.601Z,8.9
2023-02-20T19:00:08.701Z,8.8
2023-02-20T19:02:11.858Z,8.7
2023-02-20T19:04:14.976Z,8.8
2023-02-20T19:06:21.249Z,8.8
2023-02-20T19:08:24.340Z,8.7
2023-02-20T19:10:27.441Z,8.7
2023-02-20T19:12:30.550Z,8.8
2023-02-20T19:14:33.659Z,8.7
2023-02-20T19:16:36.832Z,8.6
2023-02-20T19:18:49.700Z,8.6
2023-02-20T19:20:46.173Z,8.6
2023-02-20T19:26:55.497Z,8.7
2023-02-20T19:33:04.804Z,8.7
2023-02-20T19:35:11.156Z,8.7
2023-02-20T19:37:14.252Z,8.6
2023-02-20T19:40:20.579Z,8.8
2023-02-20T19:44:26.770Z,8.7
2023-02-20T19:48:36.162Z,8.7
2023-02-20T19:54:45.505Z,8.7
2023-02-20T20:00:54.815Z,8.7
2023-02-20T20:03:01.135Z,8.7
2023-02-20T20:05:04.232Z,8.7
2023-02-20T20:07:07.331Z,8.7
2023-02-20T20:11:13.548Z,8.7
2023-02-20T20:13:16.686Z,8.7
2023-02-20T20:15:19.776Z,8.8
2023-02-20T20:17:26.119Z,8.7
2023-02-20T20:19:29.207Z,8.8
2023-02-20T20:21:32.306Z,8.7
2023-02-20T20:23:35.419Z,8.8
2023-02-20T20:25:38.532Z,8.7
2023-02-20T20:27:41.641Z,8.8
2023-02-20T20:29:45.008Z,8.8
2023-02-20T20:31:51.073Z,8.8
2023-02-20T20:33:54.138Z,8.8
2023-02-20T20:35:57.249Z,8.8
2023-02-20T20:38:21.400Z,8.7
2023-02-20T20:40:24.495Z,8.7
2023-02-20T20:42:27.607Z,8.7
2023-02-20T20:44:33.857Z,8.7
2023-02-20T20:46:36.988Z,8.7
2023-02-20T20:48:40.060Z,8.8
2023-02-20T20:50:43.166Z,8.8
2023-02-20T20:52:46.259Z,8.7
2023-02-20T20:54:49.385Z,8.8
2023-02-20T20:56:52.487Z,8.8
2023-02-20T20:58:58.807Z,8.8
2023-02-20T21:01:01.930Z,8.7
2023-02-20T21:03:05.259Z,8.7
2023-02-20T21:05:10.591Z,8.7
2023-02-20T21:07:11.250Z,8.7
2023-02-20T21:09:14.356Z,8.8
2023-02-20T21:13:23.782Z,8.7
2023-02-20T21:15:26.897Z,8.7
2023-02-20T21:17:30.019Z,8.7
2023-02-20T21:23:39.353Z,8.8
2023-02-20T21:27:48.795Z,8.8
2023-02-20T21:29:51.905Z,8.8
2023-02-20T21:31:55.037Z,8.7
2023-02-20T21:32:58.153Z,8.8
2023-02-20T21:35:01.273Z,8.7
2023-02-20T21:37:04.386Z,8.8
2023-02-20T21:39:07.505Z,8.7
2023-02-20T21:41:14.032Z,8.8
2023-02-20T21:43:16.917Z,8.8
2023-02-20T21:45:20.019Z,8.8
2023-02-20T21:47:23.128Z,8.9
2023-02-20T21:49:26.230Z,8.9
2023-02-20T21:51:29.360Z,8.9
2023-02-20T21:53:32.448Z,8.7
2023-02-20T21:55:38.777Z,8.9
2023-02-20T21:57:41.904Z,8.8
2023-02-20T21:59:45.008Z,8.8
2023-02-20T22:01:48.270Z,8.8
2023-02-20T22:03:51.220Z,8.9
2023-02-20T22:05:54.343Z,8.9
2023-02-20T22:07:57.461Z,8.8
2023-02-20T22:10:03.789Z,8.9
2023-02-20T22:12:06.883Z,8.9
2023-02-20T22:14:09.983Z,8.9
2023-02-20T22:16:13.166Z,8.9
2023-02-20T22:18:16.210Z,8.9
2023-02-20T22:20:19.319Z,8.9
2023-02-20T22:22:22.447Z,8.9
2023-02-20T22:26:31.867Z,8.8
2023-02-20T22:28:34.949Z,8.9
2023-02-20T22:33:44.339Z,9
2023-02-20T22:39:56.904Z,9
2023-02-20T22:41:59.999Z,9
2023-02-20T22:46:06.218Z,8.9
2023-02-20T22:48:09.351Z,8.9
2023-02-20T22:52:18.776Z,8.9
2023-02-20T22:56:24.958Z,9
2023-02-20T22:58:28.090Z,8.9
2023-02-20T23:00:31.321Z,9
2023-02-20T23:02:34.343Z,9
2023-02-20T23:04:37.452Z,9
2023-02-20T23:08:46.851Z,8.9
2023-02-20T23:10:49.986Z,9
2023-02-20T23:12:53.094Z,9
2023-02-20T23:14:56.180Z,8.9
2023-02-20T23:16:59.301Z,9
2023-02-20T23:19:02.429Z,9
2023-02-20T23:21:08.754Z,9
2023-02-20T23:25:14.972Z,9
2023-02-20T23:26:18.106Z,8.9
2023-02-20T23:28:28.970Z,9
2023-02-20T23:30:24.423Z,9
2023-02-20T23:32:27.470Z,8.9
2023-02-20T23:34:33.779Z,9
2023-02-20T23:36:36.881Z,8.9
2023-02-20T23:38:39.985Z,9
2023-02-20T23:40:43.075Z,9
2023-02-20T23:42:46.196Z,9
2023-02-20T23:44:49.309Z,8.9
2023-02-20T23:48:58.739Z,8.9
2023-02-20T23:51:01.874Z,8.9
2023-02-20T23:53:04.955Z,9.1
2023-02-20T23:55:08.072Z,9
2023-02-20T23:57:11.221Z,8.9
